Trenton, NJ (08601)

3:00 AM EDT on September 01, 2016 (GMT -0400)
Morris Heights | | Change Station

Elev 89 ft 40.22 °N, 74.78 °W | Updated 8 seconds ago

Light Rain
Light Rain Mist
74.2 °F
Feels Like 75 °F
N
0.3
Wind Variable Wind from SSE
Gusts 1.7 mph

Today
High -- | Low -- °F
--% Chance of Precip.
Yesterday
High -- | Low -- °F
Precip. -- in
Pressure 29.84 in
Visibility 5.0 miles
Clouds Mostly Cloudy 2100 ft
Mostly Cloudy 3500 ft
Overcast 7000 ft
Heat Index 75 °F
Dew Point 67 °F
Humidity 79%
Rainfall 0.33 in
Snow Depth Not available.
6:27 AM 7:29 PM
Waning Crescent, 0% visible
METAR KTTN 010653Z AUTO 23005KT 5SM -RA BR BKN021 BKN035 OVC070 23/21 A2987 RMK AO2 LTG DSNT W SLP105 P0007 T02280206
Pressure 29.84 in
Visibility 5.0 miles
Clouds Mostly Cloudy 2100 ft
Mostly Cloudy 3500 ft
Overcast 7000 ft
Heat Index 75 °F
Dew Point 67 °F
Humidity 79%
Rainfall 0.33 in
Snow Depth Not available.
6:27 AM 7:29 PM
Waning Crescent, 0% visible
METAR KTTN 010653Z AUTO 23005KT 5SM -RA BR BKN021 BKN035 OVC070 23/21 A2987 RMK AO2 LTG DSNT W SLP105 P0007 T02280206

10-Day Weather Forecast

Almanac

Astronomy

Sep. 01, 2016 Rise Set
Actual Time
Civil Twilight
Nautical Twilight
Astronomical Twilight
Moon
Length of Visible Light
Length of Day
Tomorrow will be .
, % of the Moon is Illuminated

Today's Extremes

State Highs State Lows

Community

WunderPhotos

Upload Photos

1,936,315 photos uploaded!

WunderBlog® & News

Nearby

Air Quality

  Air Quality AQ Index Pollutant
Not available.

Snow Depth

Station Depth Elevation

Earthquake Activity

City Distance Mag. Time & Date
Minimum magnitude displayed is 2.5.

Coastal Water Temperatures

Place Temperature

Stations

Nearby Weather Stations

Station Location Temp. Windchill Dew Point Humidity Wind Precip. Elev Updated Type
                   

Watches & Warnings

There are currently no watches in effect.